Hauptseite
METAR-TAF:

METAR-TAF

Flughäfen :

Kugaaruk, Nunavut, Kanada

Breite: 68-32N, Länge: 089-49W, Höhe: 15 m

Beobachtung

Neuester Wetterbericht von vor 21 Minuten, um 05:00 UTC
Wind 4 kt aus Nord
Temperatur -7°C
Luftfeuchtigkeit 79%
Luftdruck 1012 hPa
Sichtweite: 16.1 km
Durchbrochene Bewölkung in der Höhe von 2400 ft

METAR: CYBB 210500Z CCA 01004KT 10SM BKN024 M07/M10 A2987 RMK SC7 LAST STFD OBS/NXT 221200Z SLP118

Zeit: 23:21 (05:21 UTC)

Prognose

Neuester Wetterbericht von vor 7 Stunden und 9 Minuten, um 22:12 UTC
Gültige Prognose vom 20 um 22 UTC bis 20 um 23 UTC
Wind 8 kt aus Nord/Nordwest
Sichtweite: 10 km
Durchbrochene Bewölkung in der Höhe von 2000 ft
Zeitweise
vom 20 um 22 UTC bis 20 um 23 UTC
Sichtweite: 10 km
Schnee leicht

TAF: CYBB 202212Z 2022/2023 33008KT P6SM BKN020 TEMPO 2022/2023 P6SM -SN RMK NXT FCST WILL BE ISSUED AT 211345Z

Wetterbeobachtungen und Prognosen von mehr als 4000 Flughäfen (METAR und TAF Bericht).

Die verfügbaren Stationen werden durch gelbe und rote Markierungen auf der Karte dargestellt.

Führen Sie die Maus auf sie, um den Namen der Station zu sehen.

Darauf klicken, um die Beobachtung von Wetterbeobachtungen und Prognosen zu sehen.

Um die Karte zu ändern : klicken Sie auf den grünen Tasten mit einem schwarzen Kreuz Zum Vergrößern, auf den grünen Button mit einem Gedankenstrich zu verkleinern, oder auf die grünen Pfeile für benachbarte Karten.


METAR-TAF: